createdAt,value
2022-07-29T00:02:26.897Z,98807.75
2022-07-29T00:04:54.260Z,98811.81
2022-07-29T00:07:21.551Z,98803.53
2022-07-29T00:09:51.525Z,98799.41
2022-07-29T00:12:26.580Z,98786.84
2022-07-29T00:14:57.859Z,98787.28
2022-07-29T00:17:25.643Z,98794.94
2022-07-29T00:19:52.861Z,98802.75
2022-07-29T00:22:21.342Z,98807.34
2022-07-29T00:24:49.626Z,98799.09
2022-07-29T00:27:16.732Z,98796.28
2022-07-29T00:29:43.432Z,98799.09
2022-07-29T00:32:10.363Z,98785.50
2022-07-29T00:35:12.562Z,98785.63
2022-07-29T00:37:39.209Z,98786.22
2022-07-29T00:40:07.914Z,98797.25
2022-07-29T00:42:48.256Z,98809.28
2022-07-29T00:45:15.721Z,98814.25
2022-07-29T00:47:42.544Z,98816.06
2022-07-29T00:50:11.623Z,98822.75
2022-07-29T00:52:41.078Z,98829.84
2022-07-29T00:55:13.889Z,98834.44
2022-07-29T00:57:43.033Z,98850.44
2022-07-29T01:00:14.473Z,98842.13
2022-07-29T01:02:41.176Z,98832.25
2022-07-29T01:05:08.697Z,98821.84
2022-07-29T01:07:36.684Z,98813.16
2022-07-29T01:10:07.767Z,98811.59
2022-07-29T01:12:36.692Z,98807.66
2022-07-29T01:15:07.561Z,98810.34
2022-07-29T01:17:53.496Z,98802.97
2022-07-29T01:20:37.521Z,98796.09
2022-07-29T01:23:40.510Z,98788.38
2022-07-29T01:26:36.250Z,98787.28
2022-07-29T01:29:08.362Z,98785.09
2022-07-29T01:32:04.840Z,98782.28
2022-07-29T01:34:49.969Z,98775.81
2022-07-29T01:37:29.865Z,98776.28
2022-07-29T01:39:59.594Z,98789.38
2022-07-29T01:42:42.874Z,98772.88
2022-07-29T01:45:32.554Z,98778.44
2022-07-29T01:48:37.715Z,98773.81
2022-07-29T01:51:24.250Z,98763.78
2022-07-29T01:54:18.012Z,98756.56
2022-07-29T01:56:48.953Z,98747.13
2022-07-29T01:59:19.381Z,98744.94
2022-07-29T02:01:51.127Z,98740.69
2022-07-29T02:04:29.962Z,98739.59
2022-07-29T02:07:03.166Z,98726.88
2022-07-29T02:09:32.910Z,98732.00
2022-07-29T02:12:02.132Z,98724.41
2022-07-29T02:14:34.548Z,98728.19
2022-07-29T02:17:03.381Z,98722.81
2022-07-29T02:19:33.993Z,98727.66
2022-07-29T02:22:01.560Z,98724.69
2022-07-29T02:24:29.565Z,98713.97
2022-07-29T02:26:58.877Z,98710.41
2022-07-29T02:29:29.048Z,98700.75
2022-07-29T02:31:58.065Z,98704.78
2022-07-29T02:34:25.728Z,98698.00
2022-07-29T02:36:53.462Z,98694.47
2022-07-29T02:39:21.269Z,98702.34
2022-07-29T02:41:51.792Z,98699.47
2022-07-29T02:44:21.179Z,98705.22
2022-07-29T02:46:54.271Z,98704.13
2022-07-29T02:49:38.629Z,98706.16
2022-07-29T02:52:24.139Z,98699.75
2022-07-29T02:55:02.355Z,98701.16
2022-07-29T02:57:54.372Z,98705.41
2022-07-29T03:00:25.041Z,98697.06
2022-07-29T03:02:56.153Z,98705.94
2022-07-29T03:05:23.929Z,98703.75
2022-07-29T03:08:02.862Z,98703.81
2022-07-29T03:10:29.934Z,98691.34
2022-07-29T03:13:01.987Z,98692.91
2022-07-29T03:15:29.105Z,98692.84
2022-07-29T03:17:56.498Z,98684.81
2022-07-29T03:20:23.376Z,98679.19
2022-07-29T03:22:50.649Z,98689.44
2022-07-29T03:25:20.569Z,98697.78
2022-07-29T03:27:49.016Z,98714.84
2022-07-29T03:30:18.359Z,98718.31
2022-07-29T03:32:51.995Z,98718.34
2022-07-29T03:35:21.867Z,98718.72
2022-07-29T03:37:48.900Z,98709.34
2022-07-29T03:40:21.228Z,98711.75
2022-07-29T03:42:49.378Z,98709.22
2022-07-29T03:45:19.993Z,98712.41
2022-07-29T03:47:59.924Z,98706.06
2022-07-29T03:50:29.833Z,98698.56
2022-07-29T03:52:56.738Z,98695.94
2022-07-29T03:55:24.350Z,98696.03
2022-07-29T03:57:52.202Z,98708.72
2022-07-29T04:00:20.277Z,98723.69
2022-07-29T04:02:49.250Z,98735.97
2022-07-29T04:05:16.947Z,98728.03
2022-07-29T04:07:48.648Z,98708.56
2022-07-29T04:10:17.902Z,98687.34
2022-07-29T04:12:57.373Z,98670.13
2022-07-29T04:15:24.082Z,98680.59
2022-07-29T04:17:50.721Z,98678.59
2022-07-29T04:20:17.515Z,98654.97
2022-07-29T04:22:44.130Z,98657.41
2022-07-29T04:25:10.770Z,98656.91
2022-07-29T04:27:57.378Z,98684.47
2022-07-29T04:30:24.016Z,98693.44
2022-07-29T04:32:50.649Z,98695.50
2022-07-29T04:35:17.326Z,98690.84
2022-07-29T04:37:43.962Z,98684.44
2022-07-29T04:40:11.210Z,98690.28
2022-07-29T04:42:46.201Z,98694.19
2022-07-29T04:45:13.422Z,98690.75
2022-07-29T04:47:41.770Z,98702.72
2022-07-29T04:50:10.181Z,98704.75
2022-07-29T04:52:37.596Z,98698.31
2022-07-29T04:55:05.882Z,98696.84
2022-07-29T04:57:32.702Z,98702.66
2022-07-29T04:59:59.369Z,98696.38
2022-07-29T05:02:26.120Z,98701.06
2022-07-29T05:04:52.835Z,98693.84
2022-07-29T05:07:20.642Z,98705.19
2022-07-29T05:09:48.184Z,98707.19
2022-07-29T05:12:14.897Z,98706.81
2022-07-29T05:14:41.697Z,98710.22
2022-07-29T05:17:08.398Z,98706.25
2022-07-29T05:19:35.073Z,98709.03
2022-07-29T05:22:06.688Z,98712.66
2022-07-29T05:24:33.479Z,98708.69
2022-07-29T05:27:00.161Z,98714.41
2022-07-29T05:29:42.523Z,98713.81
2022-07-29T05:32:12.128Z,98708.63
2022-07-29T05:34:50.075Z,98710.44
2022-07-29T05:37:43.757Z,98708.69
2022-07-29T05:40:11.245Z,98726.81
2022-07-29T05:42:37.926Z,98713.75
2022-07-29T05:45:05.889Z,98714.03
2022-07-29T05:47:33.686Z,98721.28
2022-07-29T05:53:00.478Z,98727.41
2022-07-29T05:55:46.201Z,98727.84
2022-07-29T05:58:13.304Z,98720.03
2022-07-29T06:00:39.936Z,98724.16
2022-07-29T06:03:06.583Z,98720.19
2022-07-29T06:05:33.241Z,98721.94
2022-07-29T06:07:59.926Z,98720.06
2022-07-29T06:10:27.688Z,98722.78
2022-07-29T06:12:54.621Z,98732.22
2022-07-29T06:15:21.345Z,98732.25
2022-07-29T06:18:00.207Z,98721.97
2022-07-29T06:20:32.411Z,98734.59
2022-07-29T06:23:00.128Z,98733.59
2022-07-29T06:25:30.143Z,98731.25
2022-07-29T06:27:58.094Z,98737.75
2022-07-29T06:30:24.854Z,98737.66
2022-07-29T06:32:51.836Z,98732.94
2022-07-29T06:35:41.638Z,98722.69
2022-07-29T06:38:09.588Z,98721.91
2022-07-29T06:41:00.801Z,98723.53
2022-07-29T06:43:32.310Z,98727.47
2022-07-29T06:46:02.556Z,98728.16
2022-07-29T06:48:29.922Z,98715.19
2022-07-29T06:50:56.791Z,98724.31
2022-07-29T06:53:23.618Z,98723.38
2022-07-29T06:55:50.377Z,98734.56
2022-07-29T06:58:18.855Z,98733.94
2022-07-29T07:00:45.990Z,98736.56
2022-07-29T07:03:13.577Z,98737.75
2022-07-29T07:05:40.342Z,98736.97
2022-07-29T07:08:07.215Z,98742.31
2022-07-29T07:10:34.866Z,98751.88
2022-07-29T07:13:01.963Z,98758.09
2022-07-29T07:15:39.161Z,98760.47
2022-07-29T07:18:08.063Z,98765.63
2022-07-29T07:20:35.792Z,98760.19
2022-07-29T07:23:02.955Z,98757.78
2022-07-29T07:25:29.688Z,98762.88
2022-07-29T07:27:56.439Z,98765.81
2022-07-29T07:30:23.301Z,98762.78
2022-07-29T07:32:50.158Z,98773.00
2022-07-29T07:35:16.971Z,98765.53
2022-07-29T07:37:43.752Z,98762.53
2022-07-29T07:40:18.599Z,98768.84
2022-07-29T07:42:46.050Z,98768.00
2022-07-29T07:45:15.873Z,98763.28
2022-07-29T07:47:43.543Z,98764.63
2022-07-29T07:50:18.386Z,98749.59
2022-07-29T07:52:54.574Z,98746.69
2022-07-29T07:55:21.694Z,98749.41
2022-07-29T07:57:48.483Z,98751.09
2022-07-29T08:00:16.927Z,98751.22
2022-07-29T08:02:45.824Z,98760.41
2022-07-29T08:05:17.584Z,98751.34
2022-07-29T08:07:47.864Z,98762.28
2022-07-29T08:10:36.992Z,98766.69
2022-07-29T08:13:05.842Z,98753.91
2022-07-29T08:15:33.426Z,98759.19
2022-07-29T08:18:03.121Z,98754.97
2022-07-29T08:20:34.514Z,98754.66
2022-07-29T08:23:01.332Z,98744.16
2022-07-29T08:25:28.157Z,98758.63
2022-07-29T08:27:54.799Z,98754.06
2022-07-29T08:30:21.660Z,98754.72
2022-07-29T08:32:53.844Z,98761.25
2022-07-29T08:35:23.114Z,98756.41
2022-07-29T08:37:50.075Z,98762.00
2022-07-29T08:40:17.124Z,98768.44
2022-07-29T08:42:44.043Z,98765.75
2022-07-29T08:45:11.350Z,98768.09
2022-07-29T08:47:42.974Z,98770.16
2022-07-29T08:50:13.011Z,98769.47
2022-07-29T08:52:41.810Z,98767.88
2022-07-29T08:55:11.019Z,98776.66
2022-07-29T08:57:40.112Z,98773.28
2022-07-29T09:00:19.409Z,98768.47
2022-07-29T09:02:52.565Z,98770.88
2022-07-29T09:05:19.995Z,98772.78
2022-07-29T09:07:48.878Z,98770.28
2022-07-29T09:10:15.749Z,98770.88
2022-07-29T09:12:42.775Z,98774.59
2022-07-29T09:15:09.919Z,98776.03
2022-07-29T09:17:49.538Z,98768.72
2022-07-29T09:20:25.076Z,98769.75
2022-07-29T09:22:54.418Z,98762.41
2022-07-29T09:25:41.749Z,98765.50
2022-07-29T09:28:13.066Z,98758.88
2022-07-29T09:30:59.289Z,98768.00
2022-07-29T09:33:36.518Z,98763.53
2022-07-29T09:36:08.956Z,98764.78
2022-07-29T09:38:38.262Z,98760.00
2022-07-29T09:41:08.887Z,98761.16
2022-07-29T09:43:35.676Z,98754.03
2022-07-29T09:46:13.244Z,98753.88
2022-07-29T09:48:40.206Z,98754.16
2022-07-29T09:51:28.303Z,98745.56
2022-07-29T09:54:26.521Z,98753.13
2022-07-29T09:56:54.637Z,98748.69
2022-07-29T09:59:25.204Z,98755.25
2022-07-29T10:01:52.151Z,98750.69
2022-07-29T10:04:19.841Z,98750.72
2022-07-29T10:07:05.073Z,98749.31
2022-07-29T10:09:33.346Z,98746.47
2022-07-29T10:12:16.488Z,98749.25
2022-07-29T10:14:43.889Z,98747.38
2022-07-29T10:17:11.970Z,98751.09
2022-07-29T10:19:40.121Z,98746.75
2022-07-29T10:22:11.280Z,98747.50
2022-07-29T10:24:39.589Z,98754.09
2022-07-29T10:27:09.271Z,98747.28
2022-07-29T10:29:37.031Z,98741.84
2022-07-29T10:32:28.877Z,98738.59
2022-07-29T10:35:14.128Z,98742.03
2022-07-29T10:38:45.678Z,98733.50
2022-07-29T10:41:32.470Z,98734.38
2022-07-29T10:47:05.607Z,98730.78
2022-07-29T10:49:36.600Z,98732.88
2022-07-29T10:52:12.778Z,98725.41
2022-07-29T10:54:52.243Z,98727.03
2022-07-29T10:57:53.710Z,98728.69
2022-07-29T11:00:28.677Z,98725.19
2022-07-29T11:02:57.532Z,98722.59
2022-07-29T11:05:31.889Z,98727.25
2022-07-29T11:08:20.437Z,98721.81
2022-07-29T11:10:53.388Z,98719.81
2022-07-29T11:13:47.068Z,98724.91
2022-07-29T11:16:16.747Z,98725.56
2022-07-29T11:19:15.715Z,98716.53
2022-07-29T11:21:53.866Z,98727.47
2022-07-29T11:24:29.575Z,98715.63
2022-07-29T11:27:20.865Z,98718.59
2022-07-29T11:30:06.987Z,98712.44
2022-07-29T11:32:44.814Z,98721.03
2022-07-29T11:35:37.331Z,98714.41
2022-07-29T11:38:24.568Z,98716.22
2022-07-29T11:41:27.893Z,98709.72
2022-07-29T11:44:01.243Z,98709.63
2022-07-29T11:46:54.127Z,98709.78
2022-07-29T11:49:32.048Z,98700.91
2022-07-29T11:52:02.534Z,98709.38
2022-07-29T11:57:22.775Z,98706.16
2022-07-29T12:00:12.598Z,98696.47
2022-07-29T12:02:48.216Z,98698.84
2022-07-29T12:05:48.227Z,98689.72
2022-07-29T12:08:23.440Z,98688.34
2022-07-29T12:10:51.503Z,98692.59
2022-07-29T12:13:21.097Z,98688.88
2022-07-29T12:16:00.180Z,98690.78
2022-07-29T12:18:27.861Z,98683.13
2022-07-29T12:21:03.696Z,98678.47
2022-07-29T12:23:34.936Z,98677.03
2022-07-29T12:26:07.687Z,98677.94
2022-07-29T12:28:40.586Z,98669.97
2022-07-29T12:31:44.032Z,98679.38
2022-07-29T12:34:03.506Z,98677.88
2022-07-29T12:36:30.463Z,98669.19
2022-07-29T12:38:57.576Z,98665.56
2022-07-29T12:41:24.262Z,98662.59
2022-07-29T12:43:55.709Z,98658.81
2022-07-29T12:46:22.599Z,98651.00
2022-07-29T12:48:57.515Z,98650.00
2022-07-29T12:51:39.655Z,98643.81
2022-07-29T12:54:15.251Z,98641.69
2022-07-29T12:56:45.551Z,98645.28
2022-07-29T12:59:23.138Z,98635.09
2022-07-29T13:01:52.826Z,98641.53
2022-07-29T13:04:33.955Z,98644.44
2022-07-29T13:07:07.313Z,98634.91
2022-07-29T13:09:48.384Z,98643.00
2022-07-29T13:12:15.649Z,98635.84
2022-07-29T13:14:49.520Z,98646.03
2022-07-29T13:17:18.017Z,98643.00
2022-07-29T13:19:54.573Z,98638.53
2022-07-29T13:22:24.931Z,98644.59
2022-07-29T13:24:54.736Z,98650.03
2022-07-29T13:27:29.358Z,98642.88
2022-07-29T13:29:58.860Z,98640.78
2022-07-29T13:32:30.294Z,98635.66
2022-07-29T13:34:58.792Z,98631.78
2022-07-29T13:37:26.755Z,98642.16
2022-07-29T13:39:54.928Z,98634.19
2022-07-29T13:42:21.774Z,98641.53
2022-07-29T13:44:49.569Z,98637.19
2022-07-29T13:47:17.033Z,98637.28
2022-07-29T13:49:44.049Z,98631.34
2022-07-29T13:52:10.941Z,98631.31
2022-07-29T13:54:42.016Z,98632.03
2022-07-29T13:57:13.802Z,98635.03
2022-07-29T13:59:46.185Z,98640.03
2022-07-29T14:02:15.704Z,98635.66
2022-07-29T14:04:42.485Z,98644.25
2022-07-29T14:07:09.214Z,98650.88
2022-07-29T14:09:41.110Z,98648.75
2022-07-29T14:12:09.229Z,98644.34
2022-07-29T14:14:37.302Z,98644.44
2022-07-29T14:17:06.821Z,98642.91
2022-07-29T14:19:36.400Z,98648.56
2022-07-29T14:22:05.393Z,98651.31
2022-07-29T14:24:32.136Z,98655.63
2022-07-29T14:26:59.276Z,98670.69
2022-07-29T14:29:37.817Z,98663.03
2022-07-29T14:32:08.026Z,98664.97
2022-07-29T14:34:36.521Z,98672.69
2022-07-29T14:37:06.087Z,98672.25
2022-07-29T14:39:36.094Z,98678.81
2022-07-29T14:42:06.409Z,98679.84
2022-07-29T14:44:33.962Z,98679.19
2022-07-29T14:47:07.953Z,98684.53
2022-07-29T14:49:35.828Z,98692.97
2022-07-29T14:52:03.281Z,98711.38
2022-07-29T14:54:30.035Z,98699.94
2022-07-29T14:56:58.042Z,98708.75
2022-07-29T14:59:25.524Z,98704.03
2022-07-29T15:01:52.445Z,98692.25
2022-07-29T15:04:19.215Z,98699.78
2022-07-29T15:06:46.142Z,98684.28
2022-07-29T15:09:12.923Z,98674.34
2022-07-29T15:11:39.931Z,98670.50
2022-07-29T15:14:07.213Z,98667.06
2022-07-29T15:16:36.770Z,98657.59
2022-07-29T15:19:04.959Z,98652.25
2022-07-29T15:21:31.647Z,98658.09
2022-07-29T15:23:58.522Z,98657.50
2022-07-29T15:26:25.244Z,98652.63
2022-07-29T15:28:51.952Z,98647.03
2022-07-29T15:31:19.733Z,98652.91
2022-07-29T15:33:46.541Z,98660.84
2022-07-29T15:36:25.425Z,98659.66
2022-07-29T15:39:00.083Z,98661.75
2022-07-29T15:41:26.774Z,98654.47
2022-07-29T15:43:53.462Z,98655.28
2022-07-29T15:46:39.609Z,98649.81
2022-07-29T15:49:08.050Z,98651.66
2022-07-29T15:51:34.908Z,98650.00
2022-07-29T15:54:03.844Z,98657.53
2022-07-29T15:56:31.459Z,98656.97
2022-07-29T15:58:58.537Z,98660.13
2022-07-29T16:01:25.625Z,98656.06
2022-07-29T16:03:53.068Z,98662.03
2022-07-29T16:06:19.907Z,98659.69
2022-07-29T16:08:47.609Z,98656.75
2022-07-29T16:11:14.289Z,98651.19
2022-07-29T16:13:40.987Z,98657.97
2022-07-29T16:16:07.998Z,98654.47
2022-07-29T16:18:34.731Z,98651.31
2022-07-29T16:21:01.411Z,98652.97
2022-07-29T16:23:28.084Z,98657.47
2022-07-29T16:26:00.075Z,98655.56
2022-07-29T16:28:27.585Z,98647.31
2022-07-29T16:30:54.352Z,98655.72
2022-07-29T16:33:21.608Z,98647.41
2022-07-29T16:35:48.260Z,98650.75
2022-07-29T16:38:15.520Z,98656.94
2022-07-29T16:40:45.348Z,98650.19
2022-07-29T16:43:12.047Z,98656.25
2022-07-29T16:45:45.783Z,98643.63
2022-07-29T16:48:15.101Z,98658.44
2022-07-29T16:50:45.194Z,98645.78
2022-07-29T16:53:11.928Z,98651.97
2022-07-29T16:55:38.915Z,98651.25
2022-07-29T16:58:10.458Z,98659.91
2022-07-29T17:00:37.627Z,98658.03
2022-07-29T17:03:05.406Z,98668.16
2022-07-29T17:05:53.796Z,98661.09
2022-07-29T17:08:20.366Z,98666.53
2022-07-29T17:10:47.485Z,98673.13
2022-07-29T17:13:14.423Z,98673.00
2022-07-29T17:15:42.972Z,98667.19
2022-07-29T17:18:12.739Z,98683.03
2022-07-29T17:20:41.993Z,98682.66
2022-07-29T17:23:09.170Z,98695.91
2022-07-29T17:25:36.287Z,98685.28
2022-07-29T17:28:03.339Z,98689.25
2022-07-29T17:30:30.228Z,98696.44
2022-07-29T17:32:57.394Z,98703.38
2022-07-29T17:35:42.500Z,98701.47
2022-07-29T17:38:09.244Z,98711.22
2022-07-29T17:40:36.045Z,98714.63
2022-07-29T17:43:04.620Z,98721.97
2022-07-29T17:45:49.018Z,98715.44
2022-07-29T17:48:18.790Z,98726.09
2022-07-29T17:50:46.766Z,98730.56
2022-07-29T17:53:16.833Z,98735.84
2022-07-29T17:55:48.509Z,98737.56
2022-07-29T17:58:16.329Z,98741.25
2022-07-29T18:00:43.349Z,98735.72
2022-07-29T18:03:10.516Z,98738.84
2022-07-29T18:05:37.508Z,98745.78
2022-07-29T18:08:04.673Z,98750.09
2022-07-29T18:10:34.896Z,98750.22
2022-07-29T18:13:04.022Z,98756.00
2022-07-29T18:15:31.313Z,98753.50
2022-07-29T18:17:58.409Z,98754.50
2022-07-29T18:20:28.240Z,98751.66
2022-07-29T18:22:54.955Z,98757.25
2022-07-29T18:25:22.096Z,98762.41
2022-07-29T18:27:48.823Z,98762.88
2022-07-29T18:30:15.897Z,98769.38
2022-07-29T18:32:59.195Z,98785.06
2022-07-29T18:35:30.442Z,98788.13
2022-07-29T18:38:01.160Z,98785.47
2022-07-29T18:40:29.801Z,98796.78
2022-07-29T18:42:56.773Z,98799.03
2022-07-29T18:45:28.504Z,98802.22
2022-07-29T18:47:56.701Z,98808.88
2022-07-29T18:50:28.987Z,98819.53
2022-07-29T18:52:58.512Z,98820.44
2022-07-29T18:55:26.035Z,98824.41
2022-07-29T18:57:55.676Z,98821.94
2022-07-29T19:00:25.393Z,98824.16
2022-07-29T19:02:52.818Z,98824.69
2022-07-29T19:05:20.488Z,98826.34
2022-07-29T19:07:47.160Z,98832.13
2022-07-29T19:10:13.914Z,98832.31
2022-07-29T19:12:40.720Z,98826.19
2022-07-29T19:15:10.177Z,98828.69
2022-07-29T19:17:36.920Z,98833.84
2022-07-29T19:20:04.184Z,98833.00
2022-07-29T19:22:33.128Z,98835.69
2022-07-29T19:24:59.852Z,98845.88
2022-07-29T19:27:26.561Z,98838.50
2022-07-29T19:29:55.813Z,98840.13
2022-07-29T19:32:26.336Z,98848.50
2022-07-29T19:35:11.789Z,98859.44
2022-07-29T19:37:38.432Z,98861.41
2022-07-29T19:40:06.820Z,98857.28
2022-07-29T19:42:33.722Z,98867.56
2022-07-29T19:45:00.374Z,98872.13
2022-07-29T19:47:27.101Z,98874.59
2022-07-29T19:49:53.772Z,98879.50
2022-07-29T19:52:20.491Z,98881.91
2022-07-29T19:54:47.178Z,98884.09
2022-07-29T19:57:14.127Z,98886.00
2022-07-29T19:59:41.075Z,98883.94
2022-07-29T20:02:10.802Z,98884.63
2022-07-29T20:04:38.456Z,98889.13
2022-07-29T20:07:06.530Z,98886.66
2022-07-29T20:09:33.459Z,98888.72
2022-07-29T20:12:00.213Z,98886.88
2022-07-29T20:14:26.875Z,98888.72
2022-07-29T20:16:54.266Z,98889.13
2022-07-29T20:19:21.193Z,98889.00
2022-07-29T20:21:48.036Z,98900.78
2022-07-29T20:24:14.909Z,98895.66
2022-07-29T20:26:41.733Z,98898.88
2022-07-29T20:29:08.989Z,98889.16
2022-07-29T20:31:36.017Z,98893.59
2022-07-29T20:34:03.065Z,98896.88
2022-07-29T20:36:29.961Z,98898.34
2022-07-29T20:38:56.722Z,98895.53
2022-07-29T20:41:23.565Z,98895.97
2022-07-29T20:43:50.368Z,98907.28
2022-07-29T20:46:18.024Z,98916.69
2022-07-29T20:48:45.629Z,98911.22
2022-07-29T20:51:13.042Z,98912.69
2022-07-29T20:53:41.025Z,98902.19
2022-07-29T20:56:08.086Z,98900.13
2022-07-29T20:58:36.183Z,98891.69
2022-07-29T21:01:03.791Z,98889.75
2022-07-29T21:03:30.728Z,98889.75
2022-07-29T21:05:57.477Z,98893.56
2022-07-29T21:08:24.374Z,98893.28
2022-07-29T21:10:51.318Z,98900.91
2022-07-29T21:13:19.592Z,98910.69
2022-07-29T21:15:49.538Z,98909.91
2022-07-29T21:18:36.675Z,98911.28
2022-07-29T21:21:04.969Z,98907.13
2022-07-29T21:23:32.029Z,98905.50
2022-07-29T21:25:59.773Z,98905.50
2022-07-29T21:28:26.433Z,98905.09
2022-07-29T21:31:01.877Z,98903.59
2022-07-29T21:33:30.419Z,98898.56
2022-07-29T21:38:44.353Z,98911.34
2022-07-29T21:41:12.419Z,98915.19
2022-07-29T21:43:41.943Z,98910.06
2022-07-29T21:46:09.403Z,98909.78
2022-07-29T21:48:36.195Z,98903.59
2022-07-29T21:51:02.925Z,98908.03
2022-07-29T21:53:30.635Z,98907.84
2022-07-29T21:55:57.569Z,98913.06
2022-07-29T21:58:24.586Z,98915.94
2022-07-29T22:00:51.938Z,98907.31
2022-07-29T22:03:20.008Z,98910.28
2022-07-29T22:05:46.721Z,98904.50
2022-07-29T22:08:13.467Z,98901.47
2022-07-29T22:10:40.363Z,98897.50
2022-07-29T22:13:07.374Z,98901.53
2022-07-29T22:15:34.171Z,98899.34
2022-07-29T22:18:01.183Z,98897.72
2022-07-29T22:20:28.073Z,98895.22
2022-07-29T22:22:55.052Z,98894.72
2022-07-29T22:25:22.430Z,98890.75
2022-07-29T22:27:49.370Z,98894.34
2022-07-29T22:30:17.193Z,98898.94
2022-07-29T22:32:44.029Z,98890.88
2022-07-29T22:35:11.086Z,98895.94
2022-07-29T22:37:37.877Z,98901.75
2022-07-29T22:40:05.777Z,98899.66
2022-07-29T22:42:33.865Z,98906.41
2022-07-29T22:45:00.641Z,98903.97
2022-07-29T22:47:46.243Z,98905.22
2022-07-29T22:50:14.045Z,98911.69
2022-07-29T22:52:40.728Z,98915.13
2022-07-29T22:55:07.830Z,98920.22
2022-07-29T22:57:34.477Z,98921.78
2022-07-29T23:00:02.157Z,98925.94
2022-07-29T23:02:29.385Z,98919.50
2022-07-29T23:04:56.324Z,98920.53
2022-07-29T23:07:23.683Z,98927.59
2022-07-29T23:09:50.508Z,98932.16
2022-07-29T23:12:17.450Z,98935.16
2022-07-29T23:14:44.112Z,98926.78
2022-07-29T23:17:10.826Z,98921.22
2022-07-29T23:19:37.562Z,98924.97
2022-07-29T23:22:04.892Z,98925.31
2022-07-29T23:24:31.595Z,98921.97
2022-07-29T23:26:58.759Z,98927.53
2022-07-29T23:29:26.481Z,98926.59
2022-07-29T23:31:53.136Z,98918.53
2022-07-29T23:34:19.912Z,98930.88
2022-07-29T23:36:46.635Z,98928.28
2022-07-29T23:39:13.554Z,98925.38
2022-07-29T23:41:40.725Z,98935.47
2022-07-29T23:44:07.933Z,98932.16
2022-07-29T23:46:34.653Z,98919.38
2022-07-29T23:49:01.384Z,98914.94
2022-07-29T23:51:28.980Z,98926.34
2022-07-29T23:53:56.041Z,98919.94
2022-07-29T23:56:23.264Z,98914.75
2022-07-29T23:58:50.187Z,98916.22
